createdAt,value
2022-10-17T00:01:21.719Z,100.00
2022-10-17T00:03:50.833Z,100.00
2022-10-17T00:06:21.700Z,100.00
2022-10-17T00:08:56.280Z,100.00
2022-10-17T00:11:39.751Z,100.00
2022-10-17T00:14:10.793Z,100.00
2022-10-17T00:16:42.482Z,100.00
2022-10-17T00:19:10.647Z,100.00
2022-10-17T00:21:38.665Z,100.00
2022-10-17T00:24:10.259Z,100.00
2022-10-17T00:26:43.970Z,100.00
2022-10-17T00:29:14.956Z,100.00
2022-10-17T00:31:50.774Z,100.00
2022-10-17T00:34:23.696Z,100.00
2022-10-17T00:37:05.028Z,100.00
2022-10-17T00:39:34.256Z,100.00
2022-10-17T00:42:06.355Z,100.00
2022-10-17T00:45:02.764Z,100.00
2022-10-17T00:47:38.152Z,100.00
2022-10-17T00:50:09.398Z,100.00
2022-10-17T00:52:37.918Z,100.00
2022-10-17T00:55:12.756Z,100.00
2022-10-17T00:57:55.065Z,100.00
2022-10-17T01:00:23.558Z,100.00
2022-10-17T01:02:53.417Z,100.00
2022-10-17T01:05:23.234Z,100.00
2022-10-17T01:08:02.931Z,99.90
2022-10-17T01:10:37.792Z,100.00
2022-10-17T01:13:16.870Z,99.60
2022-10-17T01:16:08.807Z,98.98
2022-10-17T01:18:54.449Z,98.33
2022-10-17T01:21:46.280Z,97.94
2022-10-17T01:24:52.876Z,97.25
2022-10-17T01:28:02.688Z,97.42
2022-10-17T01:30:53.534Z,97.26
2022-10-17T01:33:37.680Z,97.17
2022-10-17T01:36:13.808Z,96.57
2022-10-17T01:38:54.380Z,96.55
2022-10-17T01:41:30.812Z,96.59
2022-10-17T01:44:11.281Z,96.51
2022-10-17T01:46:53.483Z,96.80
2022-10-17T01:49:28.185Z,96.12
2022-10-17T01:52:02.796Z,95.86
2022-10-17T01:54:45.773Z,94.76
2022-10-17T01:57:23.497Z,93.53
2022-10-17T01:59:58.720Z,92.44
2022-10-17T02:02:28.104Z,91.53
2022-10-17T02:04:58.677Z,90.27
2022-10-17T02:07:32.199Z,89.44
2022-10-17T02:10:07.447Z,89.36
2022-10-17T02:12:48.402Z,89.06
2022-10-17T02:15:55.692Z,88.64
2022-10-17T02:18:36.490Z,87.74
2022-10-17T02:21:17.104Z,87.50
2022-10-17T02:24:03.564Z,87.29
2022-10-17T02:26:39.640Z,86.61
2022-10-17T02:29:13.286Z,85.65
2022-10-17T02:31:48.415Z,85.29
2022-10-17T02:34:30.213Z,84.10
2022-10-17T02:37:04.766Z,84.27
2022-10-17T02:39:34.012Z,84.16
2022-10-17T02:42:11.682Z,84.35
2022-10-17T02:44:50.199Z,83.85
2022-10-17T02:47:27.578Z,83.25
2022-10-17T02:50:00.598Z,83.17
2022-10-17T02:52:41.488Z,83.04
2022-10-17T02:55:15.338Z,81.60
2022-10-17T02:57:46.162Z,80.85
2022-10-17T03:00:18.914Z,81.10
2022-10-17T03:02:49.013Z,80.39
2022-10-17T03:05:23.176Z,79.98
2022-10-17T03:07:55.328Z,80.41
2022-10-17T03:10:26.686Z,80.23
2022-10-17T03:19:26.508Z,80.38
2022-10-17T03:19:57.362Z,80.00
2022-10-17T03:22:36.270Z,79.58
2022-10-17T03:25:17.367Z,79.68
2022-10-17T03:30:41.964Z,80.03
2022-10-17T03:33:14.816Z,79.87
2022-10-17T03:38:22.108Z,80.02
2022-10-17T03:41:03.386Z,79.37
2022-10-17T03:43:38.340Z,79.37
2022-10-17T03:46:13.541Z,78.80
2022-10-17T03:48:44.393Z,78.95
2022-10-17T03:51:23.111Z,79.63
2022-10-17T03:53:51.244Z,80.22
2022-10-17T03:56:24.393Z,80.00
2022-10-17T03:59:01.062Z,79.63
2022-10-17T04:01:29.318Z,79.20
2022-10-17T04:04:14.853Z,79.08
2022-10-17T04:06:44.405Z,79.87
2022-10-17T04:09:14.951Z,79.66
2022-10-17T04:11:48.765Z,80.04
2022-10-17T04:14:19.336Z,79.54
2022-10-17T04:34:52.697Z,81.40
2022-10-17T04:37:23.433Z,81.44
2022-10-17T04:43:01.212Z,81.08
2022-10-17T04:45:38.836Z,80.35
2022-10-17T04:48:18.332Z,79.94
2022-10-17T04:51:13.205Z,79.73
2022-10-17T04:53:48.742Z,79.02
2022-10-17T05:00:28.333Z,79.16
2022-10-17T05:03:03.362Z,79.03
2022-10-17T05:05:52.481Z,79.04
2022-10-17T05:08:27.328Z,79.49
2022-10-17T05:11:08.604Z,79.26
2022-10-17T05:13:55.451Z,78.27
2022-10-17T05:16:29.532Z,78.02
2022-10-17T05:19:06.360Z,78.02
2022-10-17T05:21:39.981Z,78.09
2022-10-17T05:24:17.912Z,77.94
2022-10-17T05:30:20.481Z,77.56
2022-10-17T05:32:49.093Z,77.70
2022-10-17T05:58:07.886Z,75.57
2022-10-17T06:05:21.326Z,75.76
2022-10-17T06:08:02.726Z,75.95
2022-10-17T06:10:36.380Z,75.55
2022-10-17T06:13:08.874Z,75.60
2022-10-17T06:15:41.415Z,75.32
2022-10-17T06:18:34.059Z,75.22
2022-10-17T06:21:36.228Z,75.11
2022-10-17T06:24:23.697Z,75.03
2022-10-17T06:27:00.898Z,74.19
2022-10-17T06:29:35.095Z,74.17
2022-10-17T06:33:00.505Z,74.59
2022-10-17T06:35:34.140Z,74.92
2022-10-17T06:38:05.087Z,75.15
2022-10-17T06:40:37.387Z,75.40
2022-10-17T06:50:23.062Z,75.74
2022-10-17T06:53:02.388Z,74.90
2022-10-17T06:55:55.505Z,74.66
2022-10-17T06:58:27.669Z,74.84
2022-10-17T07:41:42.369Z,74.90
2022-10-17T07:44:14.102Z,74.81
2022-10-17T07:46:49.486Z,74.66
2022-10-17T07:49:21.402Z,74.00
2022-10-17T07:52:09.594Z,73.50
2022-10-17T07:54:47.721Z,73.59
2022-10-17T07:57:34.160Z,73.05
2022-10-17T08:10:52.722Z,71.87
2022-10-17T08:13:26.482Z,71.79
2022-10-17T08:53:16.035Z,69.30
2022-10-17T08:55:59.453Z,68.90
2022-10-17T09:02:04.355Z,68.40
2022-10-17T09:04:53.845Z,68.19
2022-10-17T09:11:18.772Z,68.06
2022-10-17T09:14:34.756Z,67.97
2022-10-17T09:17:44.849Z,67.68
2022-10-17T09:21:11.667Z,67.35
2022-10-17T09:24:09.853Z,67.38
2022-10-17T09:26:48.435Z,67.03
2022-10-17T09:29:25.730Z,67.54
2022-10-17T09:32:02.008Z,67.90
2022-10-17T09:34:37.946Z,67.68
2022-10-17T09:37:15.890Z,67.58
2022-10-17T09:39:47.670Z,67.43
2022-10-17T09:45:19.321Z,67.37
2022-10-17T09:48:01.655Z,67.26
2022-10-17T09:50:35.657Z,67.10
2022-10-17T09:53:16.980Z,67.14
2022-10-17T09:55:53.080Z,66.41
2022-10-17T09:58:27.775Z,66.36
2022-10-17T10:01:21.062Z,66.48
2022-10-17T10:04:11.104Z,65.44
2022-10-17T10:06:39.902Z,65.59
2022-10-17T10:09:23.188Z,65.53
2022-10-17T10:11:55.599Z,65.23
2022-10-17T10:14:25.368Z,65.03
2022-10-17T10:16:55.024Z,65.15
2022-10-17T10:19:30.497Z,64.29
2022-10-17T10:21:59.872Z,64.38
2022-10-17T10:24:31.797Z,63.97
2022-10-17T10:27:03.024Z,63.78
2022-10-17T10:29:34.337Z,63.71
2022-10-17T10:32:11.384Z,63.58
2022-10-17T10:34:47.797Z,63.70
2022-10-17T10:37:22.406Z,64.29
2022-10-17T10:39:54.593Z,63.83
2022-10-17T10:42:26.643Z,63.76
2022-10-17T10:44:59.048Z,63.86
2022-10-17T10:47:29.418Z,64.16
2022-10-17T10:50:17.352Z,64.23
2022-10-17T10:52:52.427Z,63.70
2022-10-17T10:55:30.886Z,63.83
2022-10-17T10:58:04.853Z,62.49
2022-10-17T11:00:36.163Z,63.32
2022-10-17T11:03:12.949Z,63.31
2022-10-17T11:05:45.554Z,63.15
2022-10-17T11:08:21.407Z,63.05
2022-10-17T11:11:05.826Z,62.59
2022-10-17T11:13:39.776Z,62.12
2022-10-17T11:16:19.881Z,61.80
2022-10-17T11:18:52.456Z,61.48
2022-10-17T11:21:34.426Z,60.65
2022-10-17T11:24:12.009Z,60.36
2022-10-17T11:26:50.595Z,60.44
2022-10-17T11:29:23.981Z,60.57
2022-10-17T11:31:54.962Z,59.64
2022-10-17T11:34:27.484Z,59.16
2022-10-17T11:37:01.059Z,59.34
2022-10-17T11:39:33.121Z,59.04
2022-10-17T11:42:07.972Z,58.40
2022-10-17T11:44:38.381Z,58.49
2022-10-17T11:47:24.467Z,57.93
2022-10-17T11:49:58.713Z,57.69
2022-10-17T11:52:56.442Z,57.13
2022-10-17T11:55:26.143Z,57.04
2022-10-17T12:10:16.812Z,55.32
2022-10-17T12:12:44.848Z,55.33
2022-10-17T12:15:30.742Z,55.10
2022-10-17T12:18:03.166Z,55.14
2022-10-17T12:20:34.187Z,54.65
2022-10-17T12:23:07.479Z,53.38
2022-10-17T12:28:19.492Z,53.32
2022-10-17T12:30:57.401Z,53.32
2022-10-17T12:33:32.122Z,52.29
2022-10-17T12:36:44.959Z,52.96
2022-10-17T12:39:45.571Z,53.37
2022-10-17T12:42:54.961Z,52.69
2022-10-17T12:45:49.623Z,52.14
2022-10-17T12:48:54.905Z,52.57
2022-10-17T12:51:40.719Z,52.33
2022-10-17T12:54:15.220Z,52.22
2022-10-17T12:56:45.715Z,51.86
2022-10-17T12:59:18.760Z,52.36
2022-10-17T13:01:49.592Z,51.51
2022-10-17T13:04:19.688Z,51.01
2022-10-17T13:06:50.618Z,50.90
2022-10-17T13:09:27.184Z,51.30
2022-10-17T13:11:58.311Z,50.58
2022-10-17T13:14:28.745Z,50.48
2022-10-17T13:16:59.072Z,50.26
2022-10-17T13:19:30.669Z,50.30
2022-10-17T13:22:06.476Z,50.23
2022-10-17T13:24:37.502Z,49.64
2022-10-17T13:27:07.369Z,50.27
2022-10-17T13:29:38.462Z,49.86
2022-10-17T13:32:10.145Z,49.30
2022-10-17T13:34:38.513Z,49.59
2022-10-17T13:37:08.608Z,49.36
2022-10-17T13:39:58.335Z,48.70
2022-10-17T13:42:32.226Z,49.09
2022-10-17T13:45:01.911Z,49.05
2022-10-17T13:47:32.124Z,48.81
2022-10-17T13:50:00.387Z,49.02
2022-10-17T13:52:31.083Z,48.81
2022-10-17T13:55:11.743Z,48.82
2022-10-17T13:57:41.440Z,48.45
2022-10-17T14:00:21.475Z,48.47
2022-10-17T14:02:49.591Z,48.22
2022-10-17T14:05:20.177Z,48.30
2022-10-17T14:10:43.599Z,48.39
2022-10-17T14:13:20.488Z,48.17
2022-10-17T14:15:50.889Z,47.68
2022-10-17T14:18:21.787Z,47.21
2022-10-17T14:23:45.055Z,47.95
2022-10-17T14:26:16.475Z,48.01
2022-10-17T14:28:48.791Z,48.41
2022-10-17T14:31:30.334Z,48.10
2022-10-17T14:34:02.941Z,48.12
2022-10-17T14:36:43.676Z,46.77
2022-10-17T14:39:22.116Z,46.63
2022-10-17T14:41:51.661Z,46.15
2022-10-17T14:44:27.642Z,45.94
2022-10-17T14:47:30.684Z,45.25
2022-10-17T14:50:23.015Z,45.98
2022-10-17T14:53:07.249Z,45.66
2022-10-17T14:55:37.156Z,44.89
2022-10-17T14:58:20.871Z,44.63
2022-10-17T15:00:56.507Z,44.51
2022-10-17T15:03:37.211Z,44.37
2022-10-17T15:06:22.158Z,44.71
2022-10-17T15:08:50.786Z,43.93
2022-10-17T15:11:20.546Z,44.48
2022-10-17T15:13:53.811Z,44.87
2022-10-17T15:19:09.274Z,45.65
2022-10-17T15:25:26.788Z,46.38
2022-10-17T15:27:58.980Z,46.76
2022-10-17T15:30:40.413Z,46.53
2022-10-17T15:33:12.652Z,46.45
2022-10-17T15:35:44.917Z,46.44
2022-10-17T15:38:45.251Z,46.43
2022-10-17T15:41:20.003Z,46.54
2022-10-17T15:43:49.443Z,46.82
2022-10-17T15:46:21.622Z,47.18
2022-10-17T15:48:50.981Z,47.25
2022-10-17T15:51:27.192Z,47.48
2022-10-17T15:53:56.201Z,47.62
2022-10-17T15:56:36.124Z,48.19
2022-10-17T15:59:07.387Z,48.50
2022-10-17T16:01:36.307Z,48.41
2022-10-17T16:04:05.858Z,48.73
2022-10-17T16:06:36.123Z,49.15
2022-10-17T16:09:04.380Z,49.46
2022-10-17T16:11:35.534Z,50.02
2022-10-17T16:14:11.272Z,50.60
2022-10-17T16:16:40.061Z,50.80
2022-10-17T16:19:08.814Z,51.26
2022-10-17T16:21:41.594Z,51.00
2022-10-17T16:24:14.615Z,51.62
2022-10-17T16:26:42.852Z,51.89
2022-10-17T16:29:11.117Z,52.15
2022-10-17T16:31:43.450Z,51.75
2022-10-17T16:34:13.664Z,52.11
2022-10-17T16:36:43.484Z,52.28
2022-10-17T16:39:11.661Z,52.22
2022-10-17T16:41:40.647Z,52.58
2022-10-17T16:44:13.609Z,52.96
2022-10-17T16:46:42.203Z,53.38
2022-10-17T16:49:12.441Z,53.77
2022-10-17T16:51:40.413Z,54.23
2022-10-17T16:54:10.708Z,54.42
2022-10-17T16:56:38.832Z,54.59
2022-10-17T16:59:07.398Z,54.28
2022-10-17T17:01:35.761Z,54.84
2022-10-17T17:04:04.721Z,55.45
2022-10-17T17:06:33.335Z,55.95
2022-10-17T17:09:01.770Z,55.79
2022-10-17T17:11:32.486Z,56.16
2022-10-17T17:14:02.662Z,56.70
2022-10-17T17:16:31.368Z,57.12
2022-10-17T17:19:01.103Z,57.59
2022-10-17T17:21:29.371Z,57.99
2022-10-17T17:24:00.538Z,58.16
2022-10-17T17:26:32.792Z,58.48
2022-10-17T17:29:01.915Z,58.77
2022-10-17T17:31:32.445Z,59.13
2022-10-17T17:34:19.988Z,59.48
2022-10-17T17:37:03.273Z,59.97
2022-10-17T17:40:33.774Z,60.50
2022-10-17T17:43:42.223Z,60.94
2022-10-17T17:46:23.139Z,61.20
2022-10-17T17:49:38.455Z,61.54
2022-10-17T18:05:36.191Z,63.55
2022-10-17T18:12:11.713Z,64.33
2022-10-17T18:14:59.813Z,64.71
2022-10-17T18:17:47.551Z,64.86
2022-10-17T18:27:29.472Z,65.91
2022-10-17T18:30:03.009Z,66.45
2022-10-17T20:55:45.959Z,78.52
2022-10-17T20:58:18.593Z,78.60
2022-10-17T21:00:51.755Z,79.04
